createdAt,value
2018-02-03T00:01:09.991Z,67.60
2018-02-03T00:03:38.418Z,67.70
2018-02-03T00:06:06.866Z,69.30
2018-02-03T00:08:35.298Z,66.07
2018-02-03T00:11:03.700Z,67.90
2018-02-03T00:13:32.137Z,66.07
2018-02-03T00:16:00.577Z,71.60
2018-02-03T00:18:29.016Z,72.17
2018-02-03T00:20:57.432Z,68.23
2018-02-03T00:23:25.884Z,72.83
2018-02-03T00:25:54.334Z,71.10
2018-02-03T00:28:22.837Z,68.33
2018-02-03T00:30:51.313Z,70.17
2018-02-03T00:33:19.809Z,69.60
2018-02-03T00:35:48.269Z,67.30
2018-02-03T00:38:16.779Z,70.77
2018-02-03T00:40:45.241Z,72.07
2018-02-03T00:43:13.763Z,74.23
2018-02-03T00:45:42.164Z,72.97
2018-02-03T00:48:10.604Z,75.67
2018-02-03T00:50:39.102Z,74.07
2018-02-03T00:53:07.600Z,71.93
2018-02-03T00:55:36.097Z,68.93
2018-02-03T00:58:04.567Z,69.17
2018-02-03T01:00:33.081Z,70.07
2018-02-03T01:03:01.589Z,65.43
2018-02-03T01:05:30.097Z,65.17
2018-02-03T01:07:58.601Z,64.90
2018-02-03T01:10:27.097Z,63.00
2018-02-03T01:12:55.646Z,65.37
2018-02-03T01:15:24.132Z,68.67
2018-02-03T01:17:52.630Z,73.43
2018-02-03T01:20:21.137Z,72.63
2018-02-03T01:22:49.589Z,73.43
2018-02-03T01:25:18.045Z,71.53
2018-02-03T01:27:46.557Z,65.07
2018-02-03T01:30:15.032Z,63.20
2018-02-03T01:32:43.502Z,62.80
2018-02-03T01:35:11.990Z,65.10
2018-02-03T01:37:40.515Z,64.53
2018-02-03T01:40:09.005Z,64.03
2018-02-03T01:42:37.474Z,62.63
2018-02-03T01:45:05.969Z,64.77
2018-02-03T01:47:46.066Z,57.53
2018-02-03T01:50:14.572Z,55.37
2018-02-03T01:52:43.050Z,56.37
2018-02-03T01:55:11.554Z,54.87
2018-02-03T01:57:40.017Z,56.13
2018-02-03T02:00:08.531Z,60.43
2018-02-03T02:02:37.059Z,60.93
2018-02-03T02:05:05.537Z,57.07
2018-02-03T02:07:33.997Z,54.63
2018-02-03T02:10:02.490Z,60.03
2018-02-03T02:12:30.989Z,57.63
2018-02-03T02:14:59.453Z,58.17
2018-02-03T02:17:27.996Z,57.00
2018-02-03T02:19:56.520Z,61.07
2018-02-03T02:22:24.969Z,63.63
2018-02-03T02:24:53.458Z,58.70
2018-02-03T02:27:21.957Z,63.50
2018-02-03T02:29:50.469Z,63.07
2018-02-03T02:32:18.957Z,63.70
2018-02-03T02:34:47.403Z,64.43
2018-02-03T02:37:15.898Z,66.00
2018-02-03T02:39:44.401Z,63.93
2018-02-03T02:42:12.854Z,63.70
2018-02-03T02:44:41.398Z,64.63
2018-02-03T02:47:09.905Z,62.77
2018-02-03T02:49:38.359Z,62.90
2018-02-03T02:52:06.857Z,62.80
2018-02-03T02:54:35.354Z,61.87
2018-02-03T02:57:03.816Z,63.83
2018-02-03T02:59:32.294Z,62.50
2018-02-03T03:02:00.821Z,63.27
2018-02-03T03:04:29.288Z,63.77
2018-02-03T03:06:57.785Z,62.40
2018-02-03T03:09:26.269Z,62.73
2018-02-03T03:11:54.766Z,60.67
2018-02-03T03:14:23.297Z,59.27
2018-02-03T03:16:51.790Z,62.40
2018-02-03T03:19:20.246Z,59.63
2018-02-03T03:21:48.741Z,59.80
2018-02-03T03:24:17.237Z,60.13
2018-02-03T03:26:45.737Z,59.87
2018-02-03T03:29:14.229Z,59.70
2018-02-03T03:31:42.701Z,57.80
2018-02-03T03:34:11.197Z,58.67
2018-02-03T03:36:39.650Z,57.30
2018-02-03T03:39:08.101Z,58.90
2018-02-03T03:41:36.575Z,57.30
2018-02-03T03:44:05.072Z,58.93
2018-02-03T03:46:33.538Z,58.20
2018-02-03T03:49:02.037Z,56.67
2018-02-03T03:51:30.558Z,55.13
2018-02-03T03:53:59.090Z,57.57
2018-02-03T03:56:27.585Z,53.50
2018-02-03T03:58:56.081Z,55.57
2018-02-03T04:01:24.562Z,57.07
2018-02-03T04:03:53.070Z,58.03
2018-02-03T04:06:21.529Z,60.23
2018-02-03T04:08:50.053Z,60.30
2018-02-03T04:11:18.556Z,57.80
2018-02-03T04:13:47.047Z,62.83
2018-02-03T04:16:15.510Z,60.87
2018-02-03T04:18:44.040Z,61.03
2018-02-03T04:21:12.530Z,58.53
2018-02-03T04:23:41.046Z,60.50
2018-02-03T04:26:09.533Z,63.10
2018-02-03T04:28:38.009Z,64.60
2018-02-03T04:31:06.539Z,65.03
2018-02-03T04:33:35.049Z,63.03
2018-02-03T04:36:03.505Z,61.83
2018-02-03T04:38:32.010Z,67.07
2018-02-03T04:41:00.506Z,68.27
2018-02-03T04:43:29.006Z,66.20
2018-02-03T04:45:57.457Z,68.73
2018-02-03T04:48:25.971Z,68.70
2018-02-03T04:50:54.425Z,68.13
2018-02-03T04:53:22.886Z,69.03
2018-02-03T04:55:51.404Z,70.40
2018-02-03T04:58:20.609Z,67.83
2018-02-03T05:00:49.102Z,68.63
2018-02-03T05:03:17.633Z,73.80
2018-02-03T05:05:46.121Z,68.67
2018-02-03T05:08:14.614Z,70.00
2018-02-03T05:10:43.124Z,68.80
2018-02-03T05:13:11.607Z,68.60
2018-02-03T05:15:40.109Z,69.53
2018-02-03T05:18:08.605Z,68.30
2018-02-03T05:20:37.057Z,69.67
2018-02-03T05:23:05.552Z,67.37
2018-02-03T05:25:34.041Z,68.77
2018-02-03T05:28:02.498Z,66.23
2018-02-03T05:30:31.025Z,70.53
2018-02-03T05:32:59.537Z,68.20
2018-02-03T05:35:28.017Z,68.07
2018-02-03T05:37:56.537Z,62.43
2018-02-03T05:40:25.065Z,57.53
2018-02-03T05:42:53.636Z,57.37
2018-02-03T05:45:23.001Z,55.47
2018-02-03T05:47:51.562Z,57.57
2018-02-03T05:50:20.014Z,57.20
2018-02-03T05:52:48.590Z,58.47
2018-02-03T05:55:17.026Z,56.43
2018-02-03T05:57:45.477Z,56.83
2018-02-03T06:00:13.977Z,56.17
2018-02-03T06:02:42.433Z,56.97
2018-02-03T06:05:10.890Z,60.93
2018-02-03T06:07:39.391Z,58.20
2018-02-03T06:10:07.889Z,59.77
2018-02-03T06:12:36.355Z,62.80
2018-02-03T06:15:04.869Z,65.40
2018-02-03T06:17:33.332Z,64.70
2018-02-03T06:20:01.792Z,62.97
2018-02-03T06:22:30.297Z,61.23
2018-02-03T06:24:58.796Z,62.17
2018-02-03T06:27:27.311Z,66.47
2018-02-03T06:29:55.795Z,64.87
2018-02-03T06:32:24.245Z,62.83
2018-02-03T06:34:52.777Z,63.57
2018-02-03T06:37:21.259Z,67.37
2018-02-03T06:39:49.769Z,66.37
2018-02-03T06:42:18.246Z,67.93
2018-02-03T06:44:46.740Z,67.40
2018-02-03T06:47:15.230Z,69.33
2018-02-03T06:49:43.753Z,68.13
2018-02-03T06:52:12.279Z,64.07
2018-02-03T06:54:40.753Z,63.47
2018-02-03T06:57:09.249Z,63.97
2018-02-03T06:59:37.773Z,63.13
2018-02-03T07:02:06.279Z,64.27
2018-02-03T07:04:34.783Z,61.73
2018-02-03T07:07:03.251Z,62.47
2018-02-03T07:09:31.773Z,65.23
2018-02-03T07:12:00.315Z,66.00
2018-02-03T07:14:28.814Z,68.10
2018-02-03T07:16:57.306Z,66.47
2018-02-03T07:19:25.762Z,67.50
2018-02-03T07:21:54.263Z,65.40
2018-02-03T07:24:22.802Z,62.77
2018-02-03T07:26:51.261Z,56.93
2018-02-03T07:29:19.833Z,53.47
2018-02-03T07:31:48.333Z,55.13
2018-02-03T07:34:16.815Z,51.70
2018-02-03T07:36:45.338Z,51.10
2018-02-03T07:39:13.819Z,51.63
2018-02-03T07:41:42.305Z,54.53
2018-02-03T07:44:10.779Z,52.03
2018-02-03T07:46:39.325Z,50.17
2018-02-03T07:49:07.782Z,49.93
2018-02-03T07:51:36.277Z,51.33
2018-02-03T07:54:04.753Z,48.90
2018-02-03T07:56:33.321Z,42.90
2018-02-03T07:59:01.785Z,45.67
2018-02-03T08:01:30.266Z,41.60
2018-02-03T08:03:58.767Z,37.00
2018-02-03T08:06:27.230Z,45.17
2018-02-03T08:08:55.742Z,44.90
2018-02-03T08:11:24.227Z,40.60
2018-02-03T08:13:52.688Z,37.10
2018-02-03T08:16:21.198Z,37.60
2018-02-03T08:18:49.677Z,38.53
2018-02-03T08:21:18.170Z,37.17
2018-02-03T08:23:46.685Z,35.87
2018-02-03T08:26:15.230Z,37.33
2018-02-03T08:28:43.699Z,38.93
2018-02-03T08:31:12.197Z,36.73
2018-02-03T08:33:40.660Z,34.90
2018-02-03T08:36:09.139Z,36.37
2018-02-03T08:38:37.649Z,35.90
2018-02-03T08:41:06.144Z,37.93
2018-02-03T08:43:34.606Z,38.60
2018-02-03T08:46:03.200Z,40.27
2018-02-03T08:48:31.701Z,42.90
2018-02-03T08:51:00.209Z,40.13
2018-02-03T08:53:28.703Z,40.50
2018-02-03T08:55:57.213Z,47.30
2018-02-03T08:58:25.730Z,35.50
2018-02-03T09:00:54.229Z,40.57
2018-02-03T09:03:22.737Z,41.67
2018-02-03T09:05:51.231Z,40.13
2018-02-03T09:08:19.690Z,39.57
2018-02-03T09:10:48.162Z,41.77
2018-02-03T09:13:16.672Z,40.20
2018-02-03T09:15:45.174Z,40.40
2018-02-03T09:18:13.725Z,42.30
2018-02-03T09:20:42.235Z,43.57
2018-02-03T09:23:10.754Z,42.30
2018-02-03T09:25:39.217Z,43.20
2018-02-03T09:28:07.720Z,42.73
2018-02-03T09:30:36.209Z,42.07
2018-02-03T09:33:04.705Z,44.43
2018-02-03T09:35:33.210Z,43.77
2018-02-03T09:38:01.719Z,42.33
2018-02-03T09:40:30.231Z,41.03
2018-02-03T09:42:58.704Z,39.73
2018-02-03T09:45:27.238Z,32.70
2018-02-03T09:47:55.711Z,31.87
2018-02-03T09:50:24.205Z,33.17
2018-02-03T09:52:52.739Z,32.13
2018-02-03T09:55:21.230Z,30.90
2018-02-03T09:57:49.725Z,30.77
2018-02-03T10:00:18.215Z,29.63
2018-02-03T10:02:46.654Z,31.83
2018-02-03T10:05:15.102Z,31.87
2018-02-03T10:07:43.625Z,31.40
2018-02-03T10:10:12.087Z,32.00
2018-02-03T10:12:40.613Z,31.97
2018-02-03T10:15:09.073Z,34.07
2018-02-03T10:17:37.622Z,33.47
2018-02-03T10:20:06.100Z,35.53
2018-02-03T10:22:34.599Z,33.93
2018-02-03T10:25:03.093Z,31.53
2018-02-03T10:27:31.568Z,33.17
2018-02-03T10:30:00.089Z,28.80
2018-02-03T10:32:28.600Z,19.57
2018-02-03T10:34:57.093Z,15.57
2018-02-03T10:37:25.554Z,18.53
2018-02-03T10:39:54.088Z,16.33
2018-02-03T10:42:22.550Z,18.60
2018-02-03T10:44:51.049Z,17.53
2018-02-03T10:47:19.545Z,16.60
2018-02-03T10:49:48.086Z,17.33
2018-02-03T10:52:16.550Z,18.07
2018-02-03T10:54:45.031Z,16.00
2018-02-03T10:57:13.539Z,18.73
2018-02-03T10:59:42.057Z,19.07
2018-02-03T11:02:10.546Z,15.93
2018-02-03T11:04:39.012Z,22.63
2018-02-03T11:07:07.510Z,17.43
2018-02-03T11:09:36.010Z,14.13
2018-02-03T11:12:04.498Z,14.77
2018-02-03T11:14:32.970Z,14.70
2018-02-03T11:17:01.540Z,12.07
2018-02-03T11:19:30.007Z,13.50
2018-02-03T11:21:58.581Z,13.70
2018-02-03T11:24:27.053Z,12.70
2018-02-03T11:26:55.569Z,13.20
2018-02-03T11:29:24.025Z,12.07
2018-02-03T11:31:52.490Z,12.70
2018-02-03T11:34:20.994Z,12.97
2018-02-03T11:36:49.473Z,13.40
2018-02-03T11:39:17.985Z,14.97
2018-02-03T11:41:46.477Z,15.90
2018-02-03T11:44:15.005Z,16.53
2018-02-03T11:46:43.525Z,16.97
2018-02-03T11:49:12.042Z,16.93
2018-02-03T11:51:40.550Z,16.60
2018-02-03T11:54:09.008Z,16.37
2018-02-03T11:56:37.509Z,15.83
2018-02-03T11:59:05.991Z,13.80
2018-02-03T12:01:34.517Z,13.77
2018-02-03T12:04:03.032Z,13.17
2018-02-03T12:06:31.500Z,13.07
2018-02-03T12:08:59.993Z,12.77
2018-02-03T12:11:28.453Z,12.57
2018-02-03T12:13:56.932Z,16.67
2018-02-03T12:16:25.434Z,11.80
2018-02-03T12:18:53.948Z,11.70
2018-02-03T12:21:22.401Z,8.27
2018-02-03T12:23:50.901Z,9.67
2018-02-03T12:26:19.424Z,11.40
2018-02-03T12:28:47.969Z,10.20
2018-02-03T12:31:16.463Z,9.10
2018-02-03T12:33:44.913Z,9.40
2018-02-03T12:36:14.305Z,9.00
2018-02-03T12:38:42.816Z,7.40
2018-02-03T12:41:11.309Z,8.10
2018-02-03T12:43:39.817Z,8.83
2018-02-03T12:46:08.286Z,17.90
2018-02-03T12:48:36.823Z,8.83
2018-02-03T12:51:05.325Z,8.20
2018-02-03T12:53:33.795Z,8.53
2018-02-03T12:56:02.251Z,9.73
2018-02-03T12:58:30.784Z,8.70
2018-02-03T13:00:59.301Z,9.10
2018-02-03T13:03:27.813Z,8.53
2018-02-03T13:05:56.338Z,10.30
2018-02-03T13:08:24.839Z,9.43
2018-02-03T13:10:53.349Z,11.23
2018-02-03T13:13:21.834Z,15.73
2018-02-03T13:15:50.325Z,17.30
2018-02-03T13:18:18.814Z,17.40
2018-02-03T13:20:47.325Z,17.67
2018-02-03T13:23:15.801Z,14.70
2018-02-03T13:25:44.301Z,14.67
2018-02-03T13:28:12.795Z,14.90
2018-02-03T13:30:41.261Z,16.10
2018-02-03T13:33:09.779Z,17.40
2018-02-03T13:35:38.248Z,15.97
2018-02-03T13:38:06.741Z,14.97
2018-02-03T13:40:35.217Z,11.90
2018-02-03T13:43:03.722Z,14.17
2018-02-03T13:45:32.262Z,15.30
2018-02-03T13:48:00.735Z,13.80
2018-02-03T13:50:29.241Z,13.30
2018-02-03T13:52:57.749Z,13.03
2018-02-03T13:55:26.245Z,13.23
2018-02-03T13:57:54.705Z,11.87
2018-02-03T14:00:23.223Z,11.20
2018-02-03T14:02:51.694Z,10.77
2018-02-03T14:05:20.153Z,11.47
2018-02-03T14:07:48.621Z,11.93
2018-02-03T14:10:17.154Z,12.00
2018-02-03T14:12:45.647Z,11.90
2018-02-03T14:15:14.114Z,12.23
2018-02-03T14:17:42.578Z,11.23
2018-02-03T14:20:11.081Z,12.47
2018-02-03T14:22:39.594Z,11.87
2018-02-03T14:25:08.907Z,12.40
2018-02-03T14:27:37.428Z,13.07
2018-02-03T14:30:05.927Z,13.13
2018-02-03T14:32:34.429Z,13.53
2018-02-03T14:35:02.971Z,10.83
2018-02-03T14:37:31.473Z,10.60
2018-02-03T14:39:59.952Z,10.73
2018-02-03T14:42:28.459Z,10.63
2018-02-03T14:44:56.917Z,9.90
2018-02-03T14:47:25.422Z,9.93
2018-02-03T14:49:53.918Z,8.60
2018-02-03T14:52:22.369Z,9.50
2018-02-03T14:54:50.862Z,9.13
2018-02-03T14:57:19.357Z,9.60
2018-02-03T14:59:47.857Z,10.10
2018-02-03T15:02:16.358Z,8.40
2018-02-03T15:04:44.817Z,7.90
2018-02-03T15:07:13.264Z,6.97
2018-02-03T15:09:41.761Z,6.83
2018-02-03T15:12:10.245Z,7.67
2018-02-03T15:14:38.708Z,6.23
2018-02-03T15:17:07.191Z,7.57
2018-02-03T15:19:35.653Z,7.57
2018-02-03T15:22:04.123Z,6.60
2018-02-03T15:24:32.606Z,6.00
2018-02-03T15:27:01.105Z,6.77
2018-02-03T15:29:29.585Z,6.13
2018-02-03T15:31:58.050Z,8.93
2018-02-03T15:34:26.553Z,11.50
2018-02-03T15:36:54.995Z,8.60
2018-02-03T15:39:23.500Z,6.97
2018-02-03T15:41:52.017Z,6.30
2018-02-03T15:44:20.496Z,6.70
2018-02-03T15:46:49.009Z,11.67
2018-02-03T15:49:17.505Z,10.10
2018-02-03T15:51:45.965Z,12.30
2018-02-03T15:54:14.465Z,13.97
2018-02-03T15:56:42.972Z,13.80
2018-02-03T15:59:11.458Z,13.10
2018-02-03T16:01:39.927Z,13.97
2018-02-03T16:04:08.434Z,13.50
2018-02-03T16:06:36.954Z,11.13
2018-02-03T16:09:05.430Z,12.03
2018-02-03T16:11:33.885Z,11.17
2018-02-03T16:14:02.381Z,13.53
2018-02-03T16:16:30.894Z,11.40
2018-02-03T16:18:59.357Z,11.80
2018-02-03T16:21:27.879Z,11.27
2018-02-03T16:23:56.379Z,12.53
2018-02-03T16:26:24.844Z,11.60
2018-02-03T16:28:53.367Z,10.67
2018-02-03T16:31:21.871Z,11.90
2018-02-03T16:33:50.367Z,12.40
2018-02-03T16:36:18.829Z,11.87
2018-02-03T16:38:47.343Z,11.87
2018-02-03T16:41:15.813Z,12.17
2018-02-03T16:43:44.321Z,11.97
2018-02-03T16:46:12.782Z,11.73
2018-02-03T16:48:41.250Z,11.97
2018-02-03T16:51:09.773Z,11.43
2018-02-03T16:53:38.322Z,10.77
2018-02-03T16:56:06.766Z,11.30
2018-02-03T16:58:35.298Z,10.93
2018-02-03T17:01:03.797Z,10.67
2018-02-03T17:03:32.281Z,10.80
2018-02-03T17:06:00.810Z,11.07
2018-02-03T17:08:29.275Z,10.47
2018-02-03T17:13:32.442Z,12.13
2018-02-03T17:16:00.945Z,12.17
2018-02-03T17:18:29.449Z,14.37
2018-02-03T17:20:57.968Z,10.83
2018-02-03T17:23:26.505Z,11.47
2018-02-03T17:25:55.046Z,10.63
2018-02-03T17:28:23.549Z,9.87
2018-02-03T17:30:52.003Z,8.13
2018-02-03T17:33:20.495Z,9.23
2018-02-03T17:35:49.030Z,9.87
2018-02-03T17:38:23.015Z,7.80
2018-02-03T17:40:51.511Z,7.63
2018-02-03T17:43:20.045Z,6.20
2018-02-03T17:45:53.981Z,6.10
2018-02-03T17:48:22.486Z,6.30
2018-02-03T17:50:50.989Z,6.07
2018-02-03T17:53:19.504Z,6.80
2018-02-03T17:55:53.409Z,6.10
2018-02-03T17:58:21.993Z,7.10
2018-02-03T18:00:50.490Z,7.33
2018-02-03T18:03:18.953Z,7.73
2018-02-03T18:05:47.445Z,9.10
2018-02-03T18:08:15.908Z,9.27
2018-02-03T18:10:44.410Z,9.40
2018-02-03T18:13:12.949Z,9.07
2018-02-03T18:15:41.450Z,9.33
2018-02-03T18:18:09.910Z,8.80
2018-02-03T18:20:38.394Z,8.53
2018-02-03T18:23:06.910Z,7.73
2018-02-03T18:25:35.409Z,8.03
2018-02-03T18:28:03.872Z,8.03
2018-02-03T18:30:32.404Z,8.47
2018-02-03T18:33:00.867Z,7.10
2018-02-03T18:35:29.365Z,7.27
2018-02-03T18:37:57.833Z,7.37
2018-02-03T18:40:26.384Z,8.73
2018-02-03T18:42:54.849Z,7.40
2018-02-03T18:45:47.009Z,6.63
2018-02-03T18:48:15.482Z,7.17
2018-02-03T18:50:43.998Z,7.07
2018-02-03T18:53:12.454Z,8.13
2018-02-03T18:55:40.913Z,7.60
2018-02-03T18:58:09.405Z,7.83
2018-02-03T19:00:37.885Z,9.00
2018-02-03T19:03:06.410Z,7.80
2018-02-03T19:05:34.887Z,8.13
2018-02-03T19:08:03.399Z,8.17
2018-02-03T19:10:31.858Z,8.43
2018-02-03T19:13:00.349Z,8.63
2018-02-03T19:15:28.863Z,8.93
2018-02-03T19:17:57.358Z,8.63
2018-02-03T19:20:25.906Z,8.20
2018-02-03T19:22:54.382Z,6.97
2018-02-03T19:25:22.874Z,7.23
2018-02-03T19:27:51.412Z,7.50
2018-02-03T19:30:19.902Z,6.10
2018-02-03T19:32:48.354Z,6.50
2018-02-03T19:35:16.863Z,6.27
2018-02-03T19:37:45.314Z,6.00
2018-02-03T19:40:13.805Z,6.37
2018-02-03T19:42:42.270Z,6.27
2018-02-03T19:45:10.763Z,6.70
2018-02-03T19:47:39.245Z,6.97
2018-02-03T19:50:07.697Z,7.00
2018-02-03T19:52:36.161Z,7.90
2018-02-03T19:55:04.709Z,14.77
2018-02-03T19:57:33.177Z,11.20
2018-02-03T20:00:01.674Z,8.20
2018-02-03T20:02:30.169Z,11.63
2018-02-03T20:04:58.678Z,15.20
2018-02-03T20:07:27.118Z,14.37
2018-02-03T20:09:55.633Z,10.13
2018-02-03T20:12:24.116Z,11.43
2018-02-03T20:14:52.633Z,10.63
2018-02-03T20:17:21.137Z,11.10
2018-02-03T20:19:49.662Z,11.17
2018-02-03T20:22:18.157Z,11.57
2018-02-03T20:24:46.629Z,10.63
2018-02-03T20:27:15.186Z,10.37
2018-02-03T20:29:43.646Z,9.23
2018-02-03T20:32:12.106Z,8.10
2018-02-03T20:34:40.598Z,9.50
2018-02-03T20:37:09.106Z,8.50
2018-02-03T20:39:37.563Z,10.13
2018-02-03T20:42:06.061Z,9.87
2018-02-03T20:44:34.593Z,10.37
2018-02-03T20:47:03.062Z,11.80
2018-02-03T20:49:31.578Z,12.37
2018-02-03T20:52:00.128Z,10.30
2018-02-03T20:54:28.590Z,8.07
2018-02-03T20:56:57.085Z,5.83
2018-02-03T20:59:25.555Z,7.33
2018-02-03T21:01:54.020Z,9.60
2018-02-03T21:04:22.462Z,8.60
2018-02-03T21:06:50.945Z,7.53
2018-02-03T21:09:19.429Z,7.10
2018-02-03T21:11:47.868Z,6.27
2018-02-03T21:14:16.399Z,5.17
2018-02-03T21:16:44.853Z,4.50
2018-02-03T21:19:13.349Z,3.80
2018-02-03T21:21:41.794Z,3.70
2018-02-03T21:24:10.300Z,4.77
2018-02-03T21:26:38.761Z,4.20
2018-02-03T21:29:07.249Z,4.03
2018-02-03T21:31:35.710Z,3.80
2018-02-03T21:34:04.190Z,3.57
2018-02-03T21:36:32.690Z,3.70
2018-02-03T21:39:01.205Z,3.83
2018-02-03T21:41:29.718Z,3.30
2018-02-03T21:43:58.191Z,4.00
2018-02-03T21:46:26.686Z,3.47
2018-02-03T21:48:55.180Z,4.80
2018-02-03T21:51:23.666Z,4.90
2018-02-03T21:53:52.113Z,4.90
2018-02-03T21:56:20.598Z,5.00
2018-02-03T21:58:49.057Z,3.77
2018-02-03T22:01:17.545Z,3.33
2018-02-03T22:03:46.033Z,3.40
2018-02-03T22:06:14.493Z,3.30
2018-02-03T22:08:43.007Z,3.67
2018-02-03T22:11:11.525Z,4.00
2018-02-03T22:13:40.025Z,2.90
2018-02-03T22:16:08.539Z,3.73
2018-02-03T22:18:37.005Z,3.10
2018-02-03T22:21:05.512Z,2.83
2018-02-03T22:23:34.028Z,2.90
2018-02-03T22:26:02.521Z,2.33
2018-02-03T22:28:30.970Z,1.90
2018-02-03T22:30:59.456Z,2.57
2018-02-03T22:33:27.909Z,2.37
2018-02-03T22:35:56.432Z,2.23
2018-02-03T22:38:24.954Z,2.70
2018-02-03T22:40:53.424Z,3.17
2018-02-03T22:43:21.913Z,2.60
2018-02-03T22:45:50.362Z,2.93
2018-02-03T22:48:18.850Z,2.70
2018-02-03T22:50:47.345Z,3.03
2018-02-03T22:53:15.793Z,3.10
2018-02-03T22:55:44.305Z,3.77
2018-02-03T22:58:12.761Z,4.03
2018-02-03T23:00:41.270Z,5.10
2018-02-03T23:03:09.807Z,4.17
2018-02-03T23:05:38.249Z,4.87
2018-02-03T23:08:06.746Z,3.97
2018-02-03T23:10:35.254Z,4.37
2018-02-03T23:13:03.706Z,4.80
2018-02-03T23:15:32.214Z,4.27
2018-02-03T23:18:02.762Z,3.80
2018-02-03T23:20:31.346Z,3.80
2018-02-03T23:22:59.873Z,3.97
2018-02-03T23:25:28.322Z,3.60
2018-02-03T23:27:56.815Z,3.10
2018-02-03T23:30:25.666Z,3.43
2018-02-03T23:32:54.158Z,3.33
2018-02-03T23:35:22.650Z,3.77
2018-02-03T23:37:51.122Z,3.87
2018-02-03T23:40:19.578Z,2.77
2018-02-03T23:42:48.066Z,2.80
2018-02-03T23:45:16.522Z,3.97
2018-02-03T23:47:45.042Z,3.57
2018-02-03T23:50:13.549Z,2.97
2018-02-03T23:52:42.005Z,3.00
2018-02-03T23:55:10.458Z,2.90
2018-02-03T23:57:38.932Z,2.70
